Terminal Aerodrome Forecast
Issued by NWS Charleston, WV

Current Version | Previous Version | Graphics & Text | Print | Product List | Glossary On
Versions: 1 2 3 4 5 6 7 8 9 10 11 12 13 14 15 16 17 18 19 20 21 22 23 24 25
000
FTUS41 KRLX 191211 AAA
TAFHTS
TAF AMD
KHTS 191211Z 1912/2012 28008KT P6SM SCT025 BKN040
     FM191500 28010G19KT P6SM OVC035
     FM192000 27010G18KT P6SM BKN035
     FM200000 28009KT P6SM SCT050
     FM200600 25005KT P6SM SCT080=

USA.gov is the U.S. government's official web portal to all federal, state and local government web resources and services.